Time;durP1;ratioP1;P1;durP2;ratioP2;P2;SDS_P1;SDS_P2;PMS_P1;PMS_P2;Temp;Humidity;BMP_temperature;BMP_pressure;BME280_temperature;BME280_humidity;BME280_pressure;Samples;Min_cycle;Max_cycle;Signal;HPM_P1;HPM_P2
2022/09/11 00:00:31;;;;;;;;;9.67;9.67;;;;;18.63;69.85;101409.09;5098702;27;45352;-63
2022/09/11 00:02:57;;;;;;;;;8.33;7.33;;;;;18.27;69.65;101353.97;5113281;27;45481;-74
2022/09/11 00:05:22;;;;;;;;;9.67;7.67;;;;;18.69;70.22;101438.91;5110041;27;45337;-69
2022/09/11 00:07:47;;;;;;;;;10.33;9.67;;;;;18.61;69.93;101430.78;5105919;27;45488;-71
2022/09/11 00:10:13;;;;;;;;;7.67;6.00;;;;;18.64;70.15;101438.88;5116805;27;55562;-74
2022/09/11 00:12:38;;;;;;;;;12.33;9.33;;;;;18.61;70.35;101447.00;5105704;27;45427;-76
2022/09/11 00:15:04;;;;;;;;;12.67;10.00;;;;;18.30;70.60;101394.56;5108770;27;45518;-75
2022/09/11 00:17:29;;;;;;;;;7.00;7.00;;;;;18.53;70.59;101437.97;5103275;27;45581;-67
2022/09/11 00:19:54;;;;;;;;;8.00;6.67;;;;;18.54;70.45;101437.03;5101156;27;47853;-75
2022/09/11 00:22:20;;;;;;;;;13.67;11.67;;;;;18.54;70.59;101434.31;5116824;27;45128;-72
2022/09/11 00:24:46;;;;;;;;;17.67;14.67;;;;;18.55;70.76;101433.44;5118884;27;45233;-74
2022/09/11 00:27:11;;;;;;;;;11.67;9.67;;;;;18.53;70.46;101429.84;5109935;27;46090;-69
2022/09/11 00:29:36;;;;;;;;;10.00;8.67;;;;;18.46;70.43;101407.22;5116706;27;45184;-64
2022/09/11 00:32:02;;;;;;;;;13.67;9.67;;;;;18.50;70.25;101416.28;5109166;27;45673;-67
2022/09/11 00:34:27;;;;;;;;;10.67;9.00;;;;;18.57;70.42;101435.25;5108750;27;45549;-75
2022/09/11 00:36:52;;;;;;;;;11.67;11.00;;;;;18.56;70.67;101428.03;5102747;27;53258;-71
2022/09/11 00:39:18;;;;;;;;;12.00;10.00;;;;;18.59;70.54;101427.13;5110439;27;51658;-68
2022/09/11 00:41:45;;;;;;;;;15.00;14.67;;;;;18.63;70.43;101434.38;5118339;27;45419;-69
2022/09/11 00:44:14;;;;;;;;;14.67;12.33;;;;;18.62;70.28;101442.50;5117968;27;45290;-74
2022/09/11 00:46:52;;;;;;;;;6.33;6.33;;;;;18.60;70.26;101428.97;5108413;27;46530;-71
2022/09/11 00:49:29;;;;;;;;;12.00;9.67;;;;;18.56;70.06;101422.63;5109636;27;45354;-67
2022/09/11 00:52:00;;;;;;;;;12.00;8.67;;;;;18.29;70.38;101371.09;5109731;27;45387;-64
2022/09/11 00:54:33;;;;;;;;;9.67;9.33;;;;;18.42;70.18;101403.59;5108736;27;45356;-72
2022/09/11 00:57:03;;;;;;;;;9.00;6.00;;;;;18.57;70.34;101418.09;5116038;27;45679;-67
2022/09/11 00:59:31;;;;;;;;;7.67;7.67;;;;;18.47;70.45;101398.22;5106329;27;45470;-70
2022/09/11 01:01:56;;;;;;;;;7.00;7.00;;;;;18.58;70.46;101419.94;5100458;27;45365;-76
2022/09/11 01:04:22;;;;;;;;;10.00;9.00;;;;;18.35;70.25;101368.44;5098755;27;45439;-72
2022/09/11 01:06:55;;;;;;;;;11.67;7.00;;;;;18.61;70.20;101417.25;5102913;27;45428;-74
2022/09/11 01:09:21;;;;;;;;;11.00;6.00;;;;;18.62;69.97;101407.31;5102835;27;45416;-68
2022/09/11 01:12:25;;;;;;;;;8.00;6.00;;;;;18.64;70.21;101411.81;5110864;27;45559;-71
2022/09/11 01:14:54;;;;;;;;;8.33;7.00;;;;;18.64;69.77;101398.28;5103749;27;45564;-70
2022/09/11 01:17:28;;;;;;;;;16.33;13.33;;;;;18.63;69.94;101407.31;5091863;27;45880;-73
2022/09/11 01:20:18;;;;;;;;;18.00;14.67;;;;;18.60;70.06;101407.31;5094730;27;45369;-67
2022/09/11 01:23:11;;;;;;;;;27.00;22.67;;;;;18.56;70.17;101398.28;5108002;27;45399;-68
2022/09/11 01:26:10;;;;;;;;;20.00;16.33;;;;;18.56;70.20;101405.47;5098612;27;45464;-69
2022/09/11 01:29:01;;;;;;;;;14.33;11.67;;;;;18.39;70.23;101381.06;5104109;27;45393;-69
2022/09/11 01:31:35;;;;;;;;;12.33;9.33;;;;;18.37;70.47;101388.25;5124385;27;45022;-70
2022/09/11 01:34:10;;;;;;;;;10.33;10.33;;;;;18.52;70.50;101403.66;5121126;27;44988;-65
2022/09/11 01:36:43;;;;;;;;;12.00;8.33;;;;;18.51;70.57;101400.06;5106387;27;45463;-72
2022/09/11 01:39:09;;;;;;;;;11.00;9.33;;;;;18.46;70.52;101390.09;5101742;27;45482;-73
2022/09/11 01:41:50;;;;;;;;;15.33;10.33;;;;;18.48;70.57;101391.00;5099662;27;45543;-66
2022/09/11 01:44:38;;;;;;;;;12.00;9.67;;;;;18.54;70.52;101397.34;5104041;27;45341;-65
2022/09/11 01:47:09;;;;;;;;;15.67;9.00;;;;;18.35;70.29;101368.44;5108722;27;45677;-70
2022/09/11 01:49:40;;;;;;;;;9.67;9.67;;;;;18.55;70.20;101393.75;5109678;27;45631;-66
2022/09/11 01:52:11;;;;;;;;;10.33;7.67;;;;;18.51;70.68;101394.66;5102631;27;45472;-65
2022/09/11 01:55:00;;;;;;;;;14.00;12.00;;;;;18.54;70.32;101400.03;5098978;27;45450;-72
2022/09/11 01:57:36;;;;;;;;;9.33;9.00;;;;;18.06;70.34;101320.50;5097417;27;45364;-66
2022/09/11 02:00:07;;;;;;;;;11.67;10.67;;;;;18.37;70.58;101377.44;5105905;27;47388;-66
2022/09/11 02:02:37;;;;;;;;;11.33;9.33;;;;;18.41;70.69;101388.28;5111241;27;45318;-63
2022/09/11 02:05:14;;;;;;;;;13.00;11.33;;;;;18.42;70.56;101394.59;5117148;27;45300;-65
2022/09/11 02:07:46;;;;;;;;;17.67;12.33;;;;;18.47;70.76;101392.81;5116007;27;45180;-73
2022/09/11 02:10:19;;;;;;;;;13.00;11.00;;;;;18.38;70.36;101380.16;5126589;27;46384;-64
2022/09/11 02:12:57;;;;;;;;;10.67;8.67;;;;;18.33;70.54;101365.72;5107530;27;45301;-68
2022/09/11 02:15:30;;;;;;;;;9.67;9.67;;;;;18.50;70.28;101390.13;5102724;27;45666;-65
2022/09/11 02:18:05;;;;;;;;;10.67;9.67;;;;;18.49;70.49;101393.72;5098623;27;45537;-65
2022/09/11 02:20:30;;;;;;;;;8.33;8.33;;;;;18.42;70.32;101375.66;5120243;27;47968;-72
2022/09/11 02:22:56;;;;;;;;;17.00;11.00;;;;;18.41;70.00;101377.47;5113353;27;45115;-74
2022/09/11 02:25:22;;;;;;;;;12.00;11.00;;;;;18.51;69.81;101394.66;5101044;27;45493;-69
2022/09/11 02:27:47;;;;;;;;;8.67;8.67;;;;;18.50;69.98;101392.81;5095857;27;45653;-72
2022/09/11 02:30:13;;;;;;;;;8.67;7.33;;;;;18.32;70.01;101353.06;5116986;27;56085;-73
2022/09/11 02:32:41;;;;;;;;;9.33;9.33;;;;;18.33;70.16;101359.38;5112839;27;45393;-66
2022/09/11 02:35:08;;;;;;;;;16.33;11.33;;;;;18.52;69.89;101392.84;5099740;27;45403;-69
2022/09/11 02:37:52;;;;;;;;;15.33;11.33;;;;;18.52;70.05;101395.53;5125283;27;45126;-66
2022/09/11 02:40:27;;;;;;;;;10.00;9.33;;;;;18.51;69.91;101397.34;5110993;27;45517;-67
2022/09/11 02:43:15;;;;;;;;;13.67;12.33;;;;;18.54;69.76;101401.84;5110253;27;45328;-70
2022/09/11 02:45:58;;;;;;;;;9.67;8.67;;;;;18.51;69.82;101397.34;5106085;27;45305;-75
2022/09/11 02:48:33;;;;;;;;;14.67;13.33;;;;;17.81;70.20;101282.50;5094810;27;45498;-68
2022/09/11 02:51:05;;;;;;;;;10.33;8.33;;;;;18.46;70.30;101393.69;5115860;27;45448;-63
2022/09/11 02:53:48;;;;;;;;;12.33;9.33;;;;;18.45;70.06;101396.44;5113852;27;46451;-74
2022/09/11 02:56:23;;;;;;;;;10.67;10.33;;;;;18.30;70.24;101364.81;5098806;27;45460;-73
2022/09/11 02:58:57;;;;;;;;;12.67;12.67;;;;;18.45;70.28;101391.91;5095827;27;45411;-72
2022/09/11 03:01:23;;;;;;;;;12.33;10.67;;;;;18.46;70.31;101395.50;5107813;27;45315;-67
2022/09/11 03:03:49;;;;;;;;;12.00;11.33;;;;;18.26;70.06;101360.25;5104474;27;45334;-71
2022/09/11 03:06:18;;;;;;;;;11.67;10.33;;;;;18.40;70.02;101377.47;5100612;27;45544;-69
2022/09/11 03:08:43;;;;;;;;;11.33;11.33;;;;;18.31;70.05;101380.13;5108109;27;45766;-66
2022/09/11 03:11:08;;;;;;;;;11.00;8.67;;;;;18.35;70.70;101390.97;5115082;27;45443;-70
2022/09/11 03:13:35;;;;;;;;;15.00;11.33;;;;;18.33;70.30;101395.47;5114643;27;45083;-68
2022/09/11 03:16:01;;;;;;;;;18.00;15.00;;;;;18.28;70.56;101383.72;5101673;27;45485;-64
2022/09/11 03:18:26;;;;;;;;;14.33;12.33;;;;;18.28;70.45;101377.38;5107984;27;45126;-72
2022/09/11 03:20:51;;;;;;;;;17.67;12.00;;;;;18.34;70.58;101388.25;5103162;27;45583;-62
2022/09/11 03:23:17;;;;;;;;;12.33;10.00;;;;;18.21;70.57;101363.88;5100109;27;45370;-65
2022/09/11 03:25:42;;;;;;;;;16.33;13.67;;;;;18.28;70.68;101383.72;5115113;27;45279;-68
2022/09/11 03:28:08;;;;;;;;;14.00;12.67;;;;;18.27;70.49;101371.09;5115104;27;45388;-68
2022/09/11 03:30:34;;;;;;;;;11.33;10.33;;;;;18.32;70.21;101374.72;5110026;27;45351;-68
2022/09/11 03:32:59;;;;;;;;;11.67;11.67;;;;;18.20;70.62;101351.22;5109105;27;45433;-63
2022/09/11 03:35:25;;;;;;;;;11.33;10.33;;;;;18.23;70.21;101353.03;5107247;27;45376;-63
2022/09/11 03:37:51;;;;;;;;;12.67;11.33;;;;;18.27;70.53;101365.69;5109073;27;45479;-64
2022/09/11 03:40:19;;;;;;;;;14.33;13.00;;;;;18.26;70.29;101361.16;5101862;27;47133;-64
2022/09/11 03:42:44;;;;;;;;;14.67;13.33;;;;;18.34;70.08;101386.44;5115706;27;45461;-71
2022/09/11 03:45:09;;;;;;;;;17.00;12.00;;;;;18.38;70.24;101385.56;5117728;27;44922;-70
2022/09/11 03:47:36;;;;;;;;;11.33;10.00;;;;;18.33;70.14;101379.25;5112835;27;45386;-72
2022/09/11 03:50:02;;;;;;;;;11.67;11.67;;;;;18.39;70.15;101386.47;5106503;27;45396;-65
2022/09/11 03:52:29;;;;;;;;;19.67;13.00;;;;;18.27;69.85;101362.09;5115161;27;45156;-67
2022/09/11 03:54:54;;;;;;;;;18.67;13.33;;;;;18.39;70.12;101387.34;5115232;27;45394;-65
2022/09/11 03:57:20;;;;;;;;;15.67;11.33;;;;;18.34;70.25;101382.84;5112896;27;46163;-64
2022/09/11 03:59:45;;;;;;;;;16.00;11.67;;;;;18.25;70.09;101372.88;5115510;27;45500;-64
2022/09/11 04:02:10;;;;;;;;;16.33;12.00;;;;;18.33;70.12;101384.66;5111431;27;49160;-65
2022/09/11 04:04:36;;;;;;;;;26.75;19.75;;;;;18.27;70.06;101372.91;5105354;27;54815;-64
2022/09/11 04:07:01;;;;;;;;;9.33;7.00;;;;;18.27;70.18;101375.59;5105275;27;45387;-63
2022/09/11 04:09:26;;;;;;;;;12.67;11.00;;;;;17.97;70.53;101317.78;5105028;27;46069;-73
2022/09/11 04:11:51;;;;;;;;;11.67;11.67;;;;;18.15;70.37;101353.00;5102400;27;45561;-67
2022/09/11 04:14:18;;;;;;;;;13.00;10.33;;;;;18.31;70.16;101375.59;5098940;27;51146;-68
2022/09/11 04:16:43;;;;;;;;;12.00;11.00;;;;;18.24;70.28;101371.97;5112106;27;45246;-65
2022/09/11 04:19:09;;;;;;;;;9.33;8.67;;;;;18.20;69.69;101362.03;5114076;27;45812;-66
2022/09/11 04:21:34;;;;;;;;;13.33;12.00;;;;;18.16;69.83;101353.91;5119223;27;45447;-64
2022/09/11 04:24:00;;;;;;;;;16.00;9.33;;;;;18.25;69.92;101381.00;5103373;27;45767;-63
2022/09/11 04:26:29;;;;;;;;;17.00;14.67;;;;;18.16;70.15;101367.41;5106587;27;45511;-68
2022/09/11 04:28:56;;;;;;;;;14.67;11.00;;;;;18.16;70.15;101371.03;5106777;27;47055;-68
2022/09/11 04:31:21;;;;;;;;;16.00;12.00;;;;;18.08;70.19;101363.78;5101508;27;45427;-66
2022/09/11 04:33:47;;;;;;;;;14.33;10.33;;;;;18.23;70.32;101397.22;5111869;27;45676;-66
2022/09/11 04:36:17;;;;;;;;;14.33;12.00;;;;;18.22;70.05;101395.41;5113511;27;45544;-64
2022/09/11 04:38:44;;;;;;;;;14.33;12.33;;;;;18.23;70.15;101390.88;5110555;27;46230;-68
2022/09/11 04:41:09;;;;;;;;;12.67;11.67;;;;;18.23;70.54;101396.28;5103835;27;45537;-69
2022/09/11 04:43:37;;;;;;;;;16.67;10.67;;;;;18.15;70.11;101387.25;5111377;27;45550;-66
2022/09/11 04:46:11;;;;;;;;;14.00;13.67;;;;;18.18;70.37;101396.31;5099471;27;45376;-68
2022/09/11 04:48:42;;;;;;;;;11.67;11.67;;;;;18.14;70.25;101390.84;5109764;27;46331;-71
2022/09/11 04:51:08;;;;;;;;;14.00;12.33;;;;;18.17;70.35;101399.00;5106490;27;45287;-65
2022/09/11 04:53:36;;;;;;;;;13.00;11.67;;;;;18.17;70.09;101399.00;5112561;27;45454;-64
2022/09/11 04:56:12;;;;;;;;;20.00;16.33;;;;;18.15;70.39;101393.56;5103068;27;45513;-71
2022/09/11 04:58:38;;;;;;;;;16.67;14.67;;;;;17.99;70.31;101367.34;5117528;27;46086;-63
2022/09/11 05:01:13;;;;;;;;;12.00;9.33;;;;;18.03;69.93;101380.88;5101753;27;45513;-63
2022/09/11 05:03:39;;;;;;;;;15.67;10.67;;;;;18.16;69.90;101402.59;5105247;27;45432;-64
2022/09/11 05:06:05;;;;;;;;;9.67;9.67;;;;;18.10;70.14;101405.25;5111825;27;45481;-63
2022/09/11 05:08:32;;;;;;;;;13.33;10.00;;;;;18.13;70.05;101411.59;5106918;27;46676;-63
2022/09/11 05:10:59;;;;;;;;;15.00;12.00;;;;;18.11;70.40;101417.88;5099684;27;45756;-68
2022/09/11 05:13:25;;;;;;;;;14.00;12.00;;;;;18.10;70.27;101422.38;5100008;27;45439;-63
2022/09/11 05:15:50;;;;;;;;;14.67;12.33;;;;;18.09;70.15;101425.97;5105832;27;45438;-67
2022/09/11 05:18:15;;;;;;;;;13.00;11.00;;;;;17.91;70.00;101396.13;5110492;27;68527;-66
2022/09/11 05:20:41;;;;;;;;;11.33;9.33;;;;;17.91;70.22;101393.44;5115416;27;53898;-63
2022/09/11 05:23:06;;;;;;;;;14.00;11.00;;;;;18.08;70.09;101425.97;5118227;27;45117;-64
2022/09/11 05:25:32;;;;;;;;;10.67;10.67;;;;;18.07;70.24;101419.66;5119052;27;45427;-63
2022/09/11 05:27:57;;;;;;;;;14.00;12.00;;;;;18.04;70.17;101422.34;5104144;27;45288;-63
2022/09/11 05:30:23;;;;;;;;;12.33;11.00;;;;;18.03;69.99;101426.84;5108687;27;45680;-64
2022/09/11 05:32:53;;;;;;;;;19.33;11.33;;;;;17.80;69.85;101379.78;5107753;27;45278;-63
2022/09/11 05:35:20;;;;;;;;;14.00;9.67;;;;;17.96;70.01;101424.09;5098521;27;45457;-65
2022/09/11 05:37:45;;;;;;;;;11.67;11.33;;;;;17.88;70.06;101415.91;5108079;27;46230;-64
2022/09/11 05:40:11;;;;;;;;;12.67;11.00;;;;;17.94;69.87;101424.09;5114663;27;45306;-64
2022/09/11 05:42:37;;;;;;;;;17.00;15.00;;;;;17.99;70.10;101434.94;5111674;27;45349;-64
2022/09/11 05:45:03;;;;;;;;;13.00;9.00;;;;;17.93;69.90;101435.78;5110002;27;45085;-69
2022/09/11 05:47:28;;;;;;;;;13.00;10.67;;;;;17.80;69.71;101412.22;5102061;27;46097;-63
2022/09/11 05:49:55;;;;;;;;;16.67;14.00;;;;;17.85;70.17;101422.19;5117462;27;45335;-64
2022/09/11 05:52:20;;;;;;;;;14.00;10.67;;;;;17.92;69.98;101435.75;5120925;27;45219;-63
2022/09/11 05:54:46;;;;;;;;;13.67;12.00;;;;;17.97;69.91;101448.44;5123621;27;45208;-66
2022/09/11 05:57:11;;;;;;;;;20.67;12.00;;;;;17.97;69.73;101450.25;5120544;27;45492;-73
2022/09/11 05:59:36;;;;;;;;;13.67;12.67;;;;;17.94;69.91;101455.63;5119154;27;45165;-65
2022/09/11 06:02:02;;;;;;;;;16.33;11.67;;;;;17.88;69.76;101450.16;5117378;27;50481;-74
2022/09/11 06:04:27;;;;;;;;;13.00;11.67;;;;;17.93;70.39;101461.91;5113829;27;44969;-65
2022/09/11 06:06:53;;;;;;;;;14.33;14.33;;;;;17.92;70.56;101462.81;5109052;27;45435;-65
2022/09/11 06:09:18;;;;;;;;;15.33;15.33;;;;;17.73;70.03;101430.19;5109114;27;45518;-66
2022/09/11 06:11:43;;;;;;;;;16.33;12.67;;;;;17.88;70.36;101459.16;5109167;27;45423;-64
2022/09/11 06:14:09;;;;;;;;;14.33;14.33;;;;;17.80;70.08;101445.59;5121461;27;45130;-69
2022/09/11 06:16:34;;;;;;;;;17.67;15.00;;;;;17.89;70.37;101460.09;5119532;27;45283;-65
2022/09/11 06:18:59;;;;;;;;;17.00;17.00;;;;;17.90;70.49;101462.81;5116431;27;53784;-65
2022/09/11 06:21:26;;;;;;;;;19.00;16.67;;;;;17.86;70.24;101447.41;5117679;27;60078;-66
2022/09/11 06:23:52;;;;;;;;;17.33;16.67;;;;;17.91;70.42;101463.72;5117683;27;45563;-62
2022/09/11 06:26:20;;;;;;;;;16.67;13.00;;;;;17.88;70.76;101458.28;5118121;27;45716;-65
2022/09/11 06:28:46;;;;;;;;;17.67;15.00;;;;;17.54;70.36;101412.00;5124807;27;45033;-64
2022/09/11 06:31:18;;;;;;;;;17.67;16.00;;;;;17.83;70.48;101475.31;5115023;27;45194;-66
2022/09/11 06:33:44;;;;;;;;;15.67;15.67;;;;;17.84;70.82;101466.31;5123378;27;45216;-73
2022/09/11 06:36:15;;;;;;;;;16.67;15.67;;;;;17.84;71.02;101466.31;5115368;27;45270;-68
2022/09/11 06:38:42;;;;;;;;;18.67;16.00;;;;;17.83;71.02;101478.03;5119676;27;45087;-63
2022/09/11 06:41:11;;;;;;;;;21.00;19.00;;;;;17.83;71.22;101471.72;5117015;27;45075;-75
2022/09/11 06:43:37;;;;;;;;;21.33;16.67;;;;;17.89;70.75;101477.22;5114475;27;44961;-71
2022/09/11 06:46:08;;;;;;;;;17.67;16.33;;;;;17.85;70.85;101468.16;5118108;27;45461;-65
2022/09/11 06:48:33;;;;;;;;;18.67;16.00;;;;;17.94;70.71;101471.84;5119560;27;45053;-72
2022/09/11 06:51:06;;;;;;;;;17.33;16.00;;;;;17.95;71.00;101477.28;5118127;27;44928;-63
2022/09/11 06:53:32;;;;;;;;;16.33;14.67;;;;;17.91;70.84;101461.91;5114871;27;45673;-64
2022/09/11 06:56:02;;;;;;;;;15.67;12.33;;;;;17.93;70.44;101461.91;5121878;27;45426;-65
2022/09/11 06:58:28;;;;;;;;;19.67;17.00;;;;;18.01;70.50;101466.47;5116763;27;45004;-67
2022/09/11 07:00:55;;;;;;;;;16.00;12.33;;;;;18.01;70.46;101458.38;5116380;27;45181;-66
2022/09/11 07:03:20;;;;;;;;;19.00;18.00;;;;;18.08;70.96;101466.53;5117822;27;45143;-64
2022/09/11 07:05:48;;;;;;;;;18.67;16.67;;;;;18.11;70.31;101471.97;5114958;27;45648;-66
2022/09/11 07:08:13;;;;;;;;;21.00;18.00;;;;;17.77;70.24;101399.59;5114592;27;46286;-66
2022/09/11 07:10:39;;;;;;;;;20.00;15.33;;;;;18.09;70.67;101453.03;5112600;27;46602;-65
2022/09/11 07:13:05;;;;;;;;;16.33;16.00;;;;;18.21;70.32;101474.75;5119730;27;47485;-66
2022/09/11 07:15:31;;;;;;;;;18.00;17.33;;;;;18.23;70.24;101469.31;5122755;27;46096;-64
2022/09/11 07:17:56;;;;;;;;;20.67;18.33;;;;;18.10;70.13;101444.03;5119567;27;45152;-64
2022/09/11 07:20:23;;;;;;;;;21.33;14.67;;;;;18.24;70.21;101472.03;5121398;27;45105;-62
2022/09/11 07:22:48;;;;;;;;;17.33;16.33;;;;;18.31;70.03;101474.78;5121600;27;45068;-65
2022/09/11 07:25:13;;;;;;;;;22.00;16.67;;;;;18.34;70.26;101472.13;5116402;27;45177;-65
2022/09/11 07:27:39;;;;;;;;;22.67;20.00;;;;;18.38;69.90;101471.25;5121029;27;44944;-63
2022/09/11 07:30:06;;;;;;;;;22.00;19.33;;;;;18.40;69.82;101470.34;5115291;27;45018;-66
2022/09/11 07:32:31;;;;;;;;;19.67;19.67;;;;;18.47;69.89;101473.09;5118654;27;45026;-64
2022/09/11 07:34:57;;;;;;;;;20.33;19.00;;;;;18.51;69.69;101465.00;5120600;27;57474;-62
2022/09/11 07:37:22;;;;;;;;;22.00;21.00;;;;;18.55;69.76;101468.63;5125317;27;45086;-64
2022/09/11 07:39:47;;;;;;;;;26.33;21.67;;;;;18.59;69.47;101470.44;5116525;27;51825;-65
2022/09/11 07:42:13;;;;;;;;;21.00;19.33;;;;;18.63;69.32;101469.56;5111918;27;45187;-64
2022/09/11 07:44:38;;;;;;;;;28.33;21.67;;;;;18.69;69.12;101466.91;5122230;27;45465;-63
2022/09/11 07:47:04;;;;;;;;;25.67;21.33;;;;;18.77;68.68;101469.63;5122326;27;60212;-64
2022/09/11 07:49:29;;;;;;;;;25.67;22.33;;;;;18.69;67.90;101452.44;5115679;27;45538;-67
2022/09/11 07:51:55;;;;;;;;;15.33;14.00;;;;;18.81;67.29;101476.88;5114269;27;45168;-64
2022/09/11 07:54:20;;;;;;;;;14.33;13.33;;;;;18.80;67.04;101475.03;5122145;27;45225;-63
2022/09/11 07:56:47;;;;;;;;;18.33;13.67;;;;;18.74;67.43;101453.34;5122859;27;44863;-66
2022/09/11 07:59:12;;;;;;;;;17.00;15.00;;;;;18.73;67.15;101448.88;5125153;27;45076;-63
2022/09/11 08:01:38;;;;;;;;;15.33;11.67;;;;;18.96;66.75;101471.53;5120935;27;44960;-66
2022/09/11 08:04:06;;;;;;;;;19.00;16.67;;;;;18.95;66.08;101474.22;5127393;27;56622;-65
2022/09/11 08:06:34;;;;;;;;;14.67;13.00;;;;;18.91;66.16;101462.50;5119874;27;45206;-64
2022/09/11 08:09:03;;;;;;;;;24.00;16.33;;;;;18.96;66.06;101467.94;5113074;27;45361;-64
2022/09/11 08:11:30;;;;;;;;;20.00;14.67;;;;;18.98;66.08;101471.53;5123068;27;45067;-66
2022/09/11 08:13:56;;;;;;;;;16.33;12.67;;;;;18.99;65.62;101475.13;5118006;27;45179;-63
2022/09/11 08:16:24;;;;;;;;;12.67;12.67;;;;;18.96;65.51;101460.69;5123580;27;45142;-64
2022/09/11 08:18:50;;;;;;;;;16.67;12.00;;;;;18.96;65.00;101468.81;5115174;27;45221;-65
2022/09/11 08:21:17;;;;;;;;;14.00;12.00;;;;;18.98;65.37;101463.41;5111796;27;45215;-65
2022/09/11 08:23:43;;;;;;;;;16.00;12.00;;;;;19.03;65.14;101460.72;5119966;27;46409;-62
2022/09/11 08:26:11;;;;;;;;;14.67;12.33;;;;;19.14;64.99;101461.66;5121102;27;45160;-64
2022/09/11 08:28:38;;;;;;;;;14.67;10.33;;;;;19.27;64.79;101460.78;5120882;27;45302;-64
2022/09/11 08:31:05;;;;;;;;;17.33;13.67;;;;;19.37;64.19;101461.72;5122275;27;45228;-63
2022/09/11 08:33:34;;;;;;;;;12.67;10.67;;;;;19.42;64.10;101461.69;5115966;27;45568;-63
2022/09/11 08:36:03;;;;;;;;;17.33;12.33;;;;;19.55;64.02;101463.53;5122294;27;45073;-65
2022/09/11 08:38:29;;;;;;;;;13.00;11.67;;;;;19.50;63.80;101444.56;5117277;27;46232;-65
2022/09/11 08:41:10;;;;;;;;;13.33;12.67;;;;;19.73;63.14;101468.03;5116131;27;45004;-63
2022/09/11 08:43:43;;;;;;;;;16.00;14.33;;;;;19.41;62.99;101403.88;5114149;27;45285;-62
2022/09/11 08:46:10;;;;;;;;;14.67;11.33;;;;;19.88;62.55;101465.38;5125012;27;45086;-63
2022/09/11 08:49:00;;;;;;;;;18.67;13.00;;;;;19.96;62.26;101478.00;5117336;27;45092;-64
2022/09/11 08:51:26;;;;;;;;;14.33;12.33;;;;;20.04;62.16;101479.81;5123239;27;45210;-64
2022/09/11 08:53:54;;;;;;;;;12.33;12.33;;;;;20.12;61.51;101476.19;5118603;27;45506;-63
2022/09/11 08:56:22;;;;;;;;;10.33;9.33;;;;;20.12;61.38;101470.78;5128473;27;45269;-64
2022/09/11 08:59:07;;;;;;;;;12.33;11.33;;;;;20.20;60.98;101477.09;5121998;27;45167;-63
2022/09/11 09:01:59;;;;;;;;;15.67;13.00;;;;;20.21;60.63;101482.53;5112450;27;45102;-66
2022/09/11 09:04:52;;;;;;;;;12.67;12.67;;;;;20.16;60.92;101481.63;5115155;27;45518;-62
2022/09/11 09:07:24;;;;;;;;;11.33;11.00;;;;;20.13;60.68;101483.41;5103833;27;45641;-64
2022/09/11 09:09:55;;;;;;;;;12.00;12.00;;;;;20.15;61.09;101489.75;5110410;27;45006;-66
2022/09/11 09:12:35;;;;;;;;;16.00;11.67;;;;;20.18;61.18;101478.91;5109068;27;45585;-64
2022/09/11 09:15:13;;;;;;;;;10.00;10.00;;;;;20.30;60.88;101478.88;5117427;27;45410;-65
2022/09/11 09:17:52;;;;;;;;;13.67;12.67;;;;;20.34;60.73;101463.47;5118417;27;45517;-64
2022/09/11 09:20:24;;;;;;;;;19.00;12.00;;;;;20.75;60.22;101478.78;5120385;27;45181;-63
2022/09/11 09:22:55;;;;;;;;;16.33;13.33;;;;;21.48;58.10;101479.28;5108287;27;45424;-66
2022/09/11 09:25:22;;;;;;;;;15.67;13.00;;;;;22.10;56.49;101479.69;5118741;27;45864;-67
2022/09/11 09:28:02;;;;;;;;;9.67;9.67;;;;;22.33;54.66;101481.31;5111687;27;45188;-66
2022/09/11 09:30:34;;;;;;;;;13.33;9.67;;;;;22.42;54.79;101478.47;5108936;27;45635;-66
2022/09/11 09:33:05;;;;;;;;;14.67;13.67;;;;;22.45;54.35;101479.38;5108338;27;45393;-64
2022/09/11 09:35:39;;;;;;;;;11.33;10.00;;;;;22.45;54.15;101481.16;5107500;27;45381;-64
2022/09/11 09:38:25;;;;;;;;;9.67;8.33;;;;;22.33;54.43;101473.16;5111191;27;45450;-65
2022/09/11 09:41:06;;;;;;;;;13.00;8.00;;;;;22.29;54.06;101477.75;5112666;27;45352;-64
2022/09/11 09:44:13;;;;;;;;;12.67;11.00;;;;;22.10;53.99;101479.69;5109130;27;45381;-66
2022/09/11 09:46:47;;;;;;;;;9.67;8.00;;;;;21.99;53.92;101478.88;5112825;27;46113;-67
2022/09/11 09:49:26;;;;;;;;;10.00;10.00;;;;;21.93;54.92;101478.94;5115779;27;45086;-65
2022/09/11 09:51:57;;;;;;;;;13.33;11.67;;;;;21.85;55.25;101465.41;5116544;27;45349;-65
2022/09/11 09:54:25;;;;;;;;;12.33;10.00;;;;;21.92;54.75;101480.75;5112822;27;45443;-63
2022/09/11 09:57:01;;;;;;;;;13.67;9.00;;;;;21.87;54.45;101474.47;5106799;27;45313;-64
2022/09/11 10:00:02;;;;;;;;;8.00;8.00;;;;;21.88;55.04;101473.56;5114760;27;45422;-65
2022/09/11 10:02:40;;;;;;;;;9.33;9.33;;;;;21.89;55.17;101472.63;5117602;27;45217;-66
2022/09/11 10:05:33;;;;;;;;;9.00;9.00;;;;;21.90;55.07;101469.88;5115299;27;45201;-62
2022/09/11 10:08:04;;;;;;;;;10.33;10.00;;;;;21.90;54.89;101447.22;5112105;27;47083;-66
2022/09/11 10:10:33;;;;;;;;;12.00;11.33;;;;;22.12;54.83;101466.06;5117031;27;45221;-66
2022/09/11 10:13:01;;;;;;;;;10.67;8.67;;;;;22.16;54.25;101467.81;5104491;27;45356;-65
2022/09/11 10:15:28;;;;;;;;;19.67;12.00;;;;;22.22;54.12;101467.78;5116669;27;45349;-67
2022/09/11 10:18:15;;;;;;;;;7.33;7.33;;;;;22.20;54.12;101458.72;5110759;27;45438;-67
2022/09/11 10:20:41;;;;;;;;;8.67;8.67;;;;;22.21;53.42;101466.88;5107057;27;45330;-65
2022/09/11 10:23:28;;;;;;;;;9.67;9.67;;;;;22.03;53.59;101432.59;5108280;27;45484;-66
2022/09/11 10:25:54;;;;;;;;;11.67;11.00;;;;;22.26;53.48;101462.28;5109074;27;45478;-64
2022/09/11 10:28:32;;;;;;;;;9.67;8.00;;;;;22.31;53.49;101464.09;5108598;27;45745;-65
2022/09/11 10:31:03;;;;;;;;;12.00;8.33;;;;;22.36;53.07;101452.25;5102953;27;45379;-65
2022/09/11 10:33:32;;;;;;;;;14.67;12.00;;;;;22.43;53.02;101450.34;5119766;27;45196;-64
2022/09/11 10:36:00;;;;;;;;;10.00;9.00;;;;;22.46;52.78;101455.75;5114249;27;45114;-63
2022/09/11 10:38:36;;;;;;;;;9.50;8.00;;;;;22.53;52.42;101454.75;5114550;27;46659;-66
2022/09/11 10:41:13;;;;;;;;;8.00;8.00;;;;;22.51;51.50;101433.94;5111999;27;45430;-66
2022/09/11 10:43:47;;;;;;;;;9.00;6.67;;;;;22.71;51.07;101456.34;5107807;27;45455;-65
2022/09/11 10:46:39;;;;;;;;;9.33;9.00;;;;;22.75;51.22;101447.25;5117605;27;45268;-66
2022/09/11 10:49:04;;;;;;;;;8.67;8.67;;;;;22.78;51.25;101451.72;5105104;27;45736;-65
2022/09/11 10:51:35;;;;;;;;;7.67;6.00;;;;;22.70;50.67;101437.31;5115033;27;45252;-69
2022/09/11 10:54:12;;;;;;;;;5.00;5.00;;;;;22.35;50.45;101382.34;5116120;27;45214;-65
2022/09/11 10:56:56;;;;;;;;;4.33;4.33;;;;;22.71;50.23;101439.13;5111625;27;45424;-66
2022/09/11 10:59:50;;;;;;;;;4.00;4.00;;;;;22.66;49.79;101431.00;5108831;27;46411;-65
2022/09/11 11:02:27;;;;;;;;;3.33;3.00;;;;;22.57;49.85;101404.78;5102527;27;45508;-66
2022/09/11 11:04:53;;;;;;;;;6.00;6.00;;;;;22.34;49.50;101352.44;5099141;27;45639;-65
2022/09/11 11:07:44;;;;;;;;;6.00;6.00;;;;;22.47;49.91;101364.06;5118887;27;45012;-65
2022/09/11 11:10:23;;;;;;;;;6.67;6.67;;;;;22.89;50.36;101419.78;5108081;27;46004;-67
2022/09/11 11:13:03;;;;;;;;;3.00;3.00;;;;;22.86;48.92;101408.94;5119299;27;44956;-65
2022/09/11 11:15:46;;;;;;;;;5.00;5.00;;;;;22.74;49.13;101399.09;5109916;27;45432;-67
2022/09/11 11:18:37;;;;;;;;;4.33;4.33;;;;;22.83;49.48;101419.88;5105541;27;45473;-64
2022/09/11 11:21:30;;;;;;;;;6.33;5.67;;;;;22.87;49.54;101413.47;5099541;27;46383;-66
2022/09/11 11:23:59;;;;;;;;;5.00;4.33;;;;;22.87;49.04;101416.19;5104253;27;45945;-65
2022/09/11 11:26:41;;;;;;;;;7.33;3.67;;;;;22.90;49.22;101409.78;5122287;27;45764;-65
2022/09/11 11:29:32;;;;;;;;;5.00;5.00;;;;;22.97;49.33;101406.06;5111755;27;45545;-65